To NAV CANADA Home Page Login to a new session Search on AWWS site Disclaimer Vers la page française équivalente Tips FAQ What's new on the site To the Forecasts and Observations / NOTAM section To "File a Flight Plan" website Publications and other links Update of the User's profile FIC Telephone Numbers My Weather Data Folder Route Weather Data Regional Weather Data Local Weather Data To the Forecasts and Observations / NOTAM section
Request Generated 05/19/2019 at 15:06:02 UTC . Weather information available at that time is displayed.

METAR/TAF

WHITEHORSE/ERIK NIELSEN INTL/YT    

METAR CYXY 191500Z 13003KT 100V170 40SM FEW070 SCT100 SCT200 04/00 A2984 RMK AC1AC2CI1 SLP127=
METAR CYXY 191400Z 18003KT 40SM SCT100 BKN220 03/00 A2984 RMK AC3CI3 SLP128=
METAR CYXY 191300Z 00000KT 40SM SCT100 BKN240 02/M00 A2984 RMK AC3CI3 SLP128=

TAF CYXY 191138Z 1912/2012 18005KT P6SM FEW060 SCT230
BECMG 1916/1918 16010G20KT
FM192000 14012G22KT P6SM SCT080 BKN150 TEMPO 1923/2012 BKN080
BKN150
BECMG 2003/2005 VRB03KT
RMK NXT FCST BY 191800Z=
Your time UTC time
Weather data provided by Environment Canada and NAV CANADA